sensor_id;sensor_type;location;lat;lon;timestamp;P1;durP1;ratioP1;P2;durP2;ratioP2
787;SDS011;16074;42.708;23.312;2023-06-22T00:00:31;14.53;;;13.33;;
787;SDS011;16074;42.708;23.312;2023-06-22T00:02:59;14.40;;;13.30;;
787;SDS011;16074;42.708;23.312;2023-06-22T00:05:27;19.10;;;15.63;;
787;SDS011;16074;42.708;23.312;2023-06-22T00:07:55;15.57;;;14.17;;
787;SDS011;16074;42.708;23.312;2023-06-22T00:10:23;15.70;;;14.17;;
787;SDS011;16074;42.708;23.312;2023-06-22T00:12:53;16.53;;;15.13;;
787;SDS011;16074;42.708;23.312;2023-06-22T00:15:21;15.10;;;13.87;;
787;SDS011;16074;42.708;23.312;2023-06-22T00:17:49;15.77;;;14.47;;
787;SDS011;16074;42.708;23.312;2023-06-22T00:20:17;15.53;;;14.33;;
787;SDS011;16074;42.708;23.312;2023-06-22T00:22:45;15.93;;;14.47;;
787;SDS011;16074;42.708;23.312;2023-06-22T00:25:15;16.20;;;14.80;;
787;SDS011;16074;42.708;23.312;2023-06-22T00:27:43;16.13;;;14.73;;
787;SDS011;16074;42.708;23.312;2023-06-22T00:30:13;15.90;;;14.50;;
787;SDS011;16074;42.708;23.312;2023-06-22T00:32:41;16.67;;;14.97;;
787;SDS011;16074;42.708;23.312;2023-06-22T00:35:09;16.93;;;15.43;;
787;SDS011;16074;42.708;23.312;2023-06-22T00:37:39;16.17;;;14.67;;
787;SDS011;16074;42.708;23.312;2023-06-22T00:40:09;16.23;;;14.90;;
787;SDS011;16074;42.708;23.312;2023-06-22T00:42:38;16.87;;;15.17;;
787;SDS011;16074;42.708;23.312;2023-06-22T00:45:07;15.30;;;13.90;;
787;SDS011;16074;42.708;23.312;2023-06-22T00:47:37;17.53;;;15.93;;
787;SDS011;16074;42.708;23.312;2023-06-22T00:50:05;18.67;;;16.90;;
787;SDS011;16074;42.708;23.312;2023-06-22T00:52:35;17.93;;;16.13;;
787;SDS011;16074;42.708;23.312;2023-06-22T00:55:03;17.77;;;16.27;;
787;SDS011;16074;42.708;23.312;2023-06-22T00:57:33;17.47;;;15.97;;
787;SDS011;16074;42.708;23.312;2023-06-22T01:00:04;17.20;;;15.63;;
787;SDS011;16074;42.708;23.312;2023-06-22T01:02:48;17.03;;;15.73;;
787;SDS011;16074;42.708;23.312;2023-06-22T01:05:19;17.40;;;15.67;;
787;SDS011;16074;42.708;23.312;2023-06-22T01:08:00;16.63;;;15.20;;
787;SDS011;16074;42.708;23.312;2023-06-22T01:10:31;17.20;;;15.70;;
787;SDS011;16074;42.708;23.312;2023-06-22T01:13:04;15.50;;;14.23;;
787;SDS011;16074;42.708;23.312;2023-06-22T01:15:36;17.10;;;15.60;;
787;SDS011;16074;42.708;23.312;2023-06-22T01:18:06;15.93;;;14.63;;
787;SDS011;16074;42.708;23.312;2023-06-22T01:20:36;16.47;;;15.17;;
787;SDS011;16074;42.708;23.312;2023-06-22T01:23:07;16.27;;;14.77;;
787;SDS011;16074;42.708;23.312;2023-06-22T01:25:40;16.20;;;14.90;;
787;SDS011;16074;42.708;23.312;2023-06-22T01:28:13;15.27;;;14.17;;
787;SDS011;16074;42.708;23.312;2023-06-22T01:30:46;15.73;;;14.23;;
787;SDS011;16074;42.708;23.312;2023-06-22T01:33:16;15.53;;;14.30;;
787;SDS011;16074;42.708;23.312;2023-06-22T01:35:45;15.23;;;13.93;;
787;SDS011;16074;42.708;23.312;2023-06-22T01:38:13;15.70;;;14.50;;
787;SDS011;16074;42.708;23.312;2023-06-22T01:40:41;16.77;;;15.27;;
787;SDS011;16074;42.708;23.312;2023-06-22T01:43:09;16.73;;;15.33;;
787;SDS011;16074;42.708;23.312;2023-06-22T01:45:37;15.67;;;14.37;;
787;SDS011;16074;42.708;23.312;2023-06-22T01:48:07;17.07;;;15.57;;
787;SDS011;16074;42.708;23.312;2023-06-22T01:50:35;17.50;;;15.90;;
787;SDS011;16074;42.708;23.312;2023-06-22T01:53:03;17.37;;;15.57;;
787;SDS011;16074;42.708;23.312;2023-06-22T01:55:33;16.43;;;15.13;;
787;SDS011;16074;42.708;23.312;2023-06-22T01:58:01;18.10;;;16.60;;
787;SDS011;16074;42.708;23.312;2023-06-22T02:00:31;17.20;;;15.70;;
787;SDS011;16074;42.708;23.312;2023-06-22T02:02:59;16.17;;;14.50;;
787;SDS011;16074;42.708;23.312;2023-06-22T02:05:33;16.57;;;15.17;;
787;SDS011;16074;42.708;23.312;2023-06-22T02:08:02;17.77;;;16.13;;
787;SDS011;16074;42.708;23.312;2023-06-22T02:10:33;15.80;;;14.17;;
787;SDS011;16074;42.708;23.312;2023-06-22T02:13:02;16.50;;;15.00;;
787;SDS011;16074;42.708;23.312;2023-06-22T02:15:32;15.20;;;13.73;;
787;SDS011;16074;42.708;23.312;2023-06-22T02:18:00;15.60;;;14.20;;
787;SDS011;16074;42.708;23.312;2023-06-22T02:20:28;14.50;;;13.40;;
787;SDS011;16074;42.708;23.312;2023-06-22T02:22:58;15.20;;;13.60;;
787;SDS011;16074;42.708;23.312;2023-06-22T02:25:26;14.80;;;13.60;;
787;SDS011;16074;42.708;23.312;2023-06-22T02:27:54;16.03;;;14.73;;
787;SDS011;16074;42.708;23.312;2023-06-22T02:30:22;15.13;;;13.93;;
787;SDS011;16074;42.708;23.312;2023-06-22T02:32:50;14.00;;;12.80;;
787;SDS011;16074;42.708;23.312;2023-06-22T02:35:25;15.10;;;13.50;;
787;SDS011;16074;42.708;23.312;2023-06-22T02:37:53;15.40;;;14.10;;
787;SDS011;16074;42.708;23.312;2023-06-22T02:40:22;15.57;;;14.17;;
787;SDS011;16074;42.708;23.312;2023-06-22T02:42:50;15.87;;;14.57;;
787;SDS011;16074;42.708;23.312;2023-06-22T02:45:18;16.33;;;14.93;;
787;SDS011;16074;42.708;23.312;2023-06-22T02:47:47;15.67;;;14.37;;
787;SDS011;16074;42.708;23.312;2023-06-22T02:50:15;15.30;;;14.00;;
787;SDS011;16074;42.708;23.312;2023-06-22T02:52:44;15.40;;;14.20;;
787;SDS011;16074;42.708;23.312;2023-06-22T02:55:12;16.67;;;15.10;;
787;SDS011;16074;42.708;23.312;2023-06-22T02:57:46;17.33;;;15.93;;
787;SDS011;16074;42.708;23.312;2023-06-22T03:00:14;18.70;;;16.80;;
787;SDS011;16074;42.708;23.312;2023-06-22T03:02:46;17.23;;;15.83;;
787;SDS011;16074;42.708;23.312;2023-06-22T03:05:16;16.93;;;15.23;;
787;SDS011;16074;42.708;23.312;2023-06-22T03:07:46;17.13;;;15.53;;
787;SDS011;16074;42.708;23.312;2023-06-22T03:10:14;17.07;;;15.57;;
787;SDS011;16074;42.708;23.312;2023-06-22T03:12:43;16.60;;;15.13;;
787;SDS011;16074;42.708;23.312;2023-06-22T03:15:12;17.97;;;16.47;;
787;SDS011;16074;42.708;23.312;2023-06-22T03:17:41;17.93;;;16.33;;
787;SDS011;16074;42.708;23.312;2023-06-22T03:20:10;17.43;;;15.93;;
787;SDS011;16074;42.708;23.312;2023-06-22T03:22:41;17.50;;;16.00;;
787;SDS011;16074;42.708;23.312;2023-06-22T03:25:09;16.97;;;15.27;;
787;SDS011;16074;42.708;23.312;2023-06-22T03:27:42;17.53;;;16.00;;
787;SDS011;16074;42.708;23.312;2023-06-22T03:30:11;16.23;;;14.63;;
787;SDS011;16074;42.708;23.312;2023-06-22T03:32:41;17.43;;;15.77;;
787;SDS011;16074;42.708;23.312;2023-06-22T03:35:10;15.57;;;14.20;;
787;SDS011;16074;42.708;23.312;2023-06-22T03:37:40;18.50;;;16.70;;
787;SDS011;16074;42.708;23.312;2023-06-22T03:40:08;17.87;;;16.30;;
787;SDS011;16074;42.708;23.312;2023-06-22T03:42:37;18.70;;;17.00;;
787;SDS011;16074;42.708;23.312;2023-06-22T03:45:05;18.57;;;16.97;;
787;SDS011;16074;42.708;23.312;2023-06-22T03:47:33;18.27;;;16.77;;
787;SDS011;16074;42.708;23.312;2023-06-22T03:50:04;18.07;;;16.30;;
787;SDS011;16074;42.708;23.312;2023-06-22T03:52:32;17.50;;;15.97;;
787;SDS011;16074;42.708;23.312;2023-06-22T03:55:00;18.47;;;16.77;;
787;SDS011;16074;42.708;23.312;2023-06-22T03:57:29;19.57;;;17.33;;
787;SDS011;16074;42.708;23.312;2023-06-22T03:59:57;18.53;;;16.93;;
787;SDS011;16074;42.708;23.312;2023-06-22T04:02:25;18.67;;;16.97;;
787;SDS011;16074;42.708;23.312;2023-06-22T04:04:53;18.70;;;16.80;;
787;SDS011;16074;42.708;23.312;2023-06-22T04:07:24;22.17;;;16.83;;
787;SDS011;16074;42.708;23.312;2023-06-22T04:09:52;17.27;;;15.70;;
787;SDS011;16074;42.708;23.312;2023-06-22T04:12:20;16.60;;;15.20;;
787;SDS011;16074;42.708;23.312;2023-06-22T04:14:48;19.03;;;17.33;;
787;SDS011;16074;42.708;23.312;2023-06-22T04:17:16;17.80;;;16.30;;
787;SDS011;16074;42.708;23.312;2023-06-22T04:19:44;17.10;;;15.50;;
787;SDS011;16074;42.708;23.312;2023-06-22T04:22:12;21.00;;;18.90;;
787;SDS011;16074;42.708;23.312;2023-06-22T04:24:41;21.97;;;18.47;;
787;SDS011;16074;42.708;23.312;2023-06-22T04:27:09;20.47;;;18.50;;
787;SDS011;16074;42.708;23.312;2023-06-22T04:29:37;19.80;;;17.80;;
787;SDS011;16074;42.708;23.312;2023-06-22T04:32:15;19.77;;;16.83;;
787;SDS011;16074;42.708;23.312;2023-06-22T04:34:43;20.33;;;18.40;;
787;SDS011;16074;42.708;23.312;2023-06-22T04:37:11;21.70;;;19.60;;
787;SDS011;16074;42.708;23.312;2023-06-22T04:39:43;22.33;;;20.00;;
787;SDS011;16074;42.708;23.312;2023-06-22T04:42:12;21.23;;;18.93;;
787;SDS011;16074;42.708;23.312;2023-06-22T04:44:40;23.07;;;20.90;;
787;SDS011;16074;42.708;23.312;2023-06-22T04:47:08;24.50;;;21.23;;
787;SDS011;16074;42.708;23.312;2023-06-22T04:49:36;23.43;;;21.30;;
787;SDS011;16074;42.708;23.312;2023-06-22T04:52:07;24.10;;;21.87;;
787;SDS011;16074;42.708;23.312;2023-06-22T04:54:36;23.50;;;21.30;;
787;SDS011;16074;42.708;23.312;2023-06-22T04:57:06;23.60;;;21.30;;
787;SDS011;16074;42.708;23.312;2023-06-22T04:59:37;22.53;;;20.43;;
787;SDS011;16074;42.708;23.312;2023-06-22T05:02:08;22.93;;;20.50;;
787;SDS011;16074;42.708;23.312;2023-06-22T05:04:36;22.27;;;20.27;;
787;SDS011;16074;42.708;23.312;2023-06-22T05:07:06;22.90;;;20.73;;
787;SDS011;16074;42.708;23.312;2023-06-22T05:09:34;23.57;;;21.27;;
787;SDS011;16074;42.708;23.312;2023-06-22T05:12:02;22.27;;;20.10;;
787;SDS011;16074;42.708;23.312;2023-06-22T05:14:36;18.83;;;17.03;;
787;SDS011;16074;42.708;23.312;2023-06-22T05:17:04;20.10;;;18.00;;
787;SDS011;16074;42.708;23.312;2023-06-22T05:19:42;19.77;;;18.07;;
787;SDS011;16074;42.708;23.312;2023-06-22T05:22:11;20.10;;;18.23;;
787;SDS011;16074;42.708;23.312;2023-06-22T05:24:40;20.70;;;18.80;;
787;SDS011;16074;42.708;23.312;2023-06-22T05:27:08;21.17;;;19.23;;
787;SDS011;16074;42.708;23.312;2023-06-22T05:29:37;21.13;;;19.03;;
787;SDS011;16074;42.708;23.312;2023-06-22T05:32:06;21.60;;;19.37;;
787;SDS011;16074;42.708;23.312;2023-06-22T05:34:34;23.73;;;21.43;;
787;SDS011;16074;42.708;23.312;2023-06-22T05:37:02;21.93;;;19.80;;
787;SDS011;16074;42.708;23.312;2023-06-22T05:39:30;21.97;;;19.77;;
787;SDS011;16074;42.708;23.312;2023-06-22T05:41:58;22.77;;;20.57;;
787;SDS011;16074;42.708;23.312;2023-06-22T05:44:26;22.77;;;20.53;;
787;SDS011;16074;42.708;23.312;2023-06-22T05:46:55;23.70;;;21.37;;
787;SDS011;16074;42.708;23.312;2023-06-22T05:49:24;25.60;;;21.07;;
787;SDS011;16074;42.708;23.312;2023-06-22T05:51:56;22.33;;;19.93;;
787;SDS011;16074;42.708;23.312;2023-06-22T05:54:24;20.07;;;18.20;;
787;SDS011;16074;42.708;23.312;2023-06-22T05:56:52;17.93;;;15.87;;
787;SDS011;16074;42.708;23.312;2023-06-22T05:59:20;17.80;;;16.20;;
787;SDS011;16074;42.708;23.312;2023-06-22T06:01:48;17.87;;;16.20;;
787;SDS011;16074;42.708;23.312;2023-06-22T06:04:19;16.30;;;15.00;;
787;SDS011;16074;42.708;23.312;2023-06-22T06:06:47;17.00;;;15.17;;
787;SDS011;16074;42.708;23.312;2023-06-22T06:09:15;17.70;;;15.90;;
787;SDS011;16074;42.708;23.312;2023-06-22T06:11:43;18.73;;;16.80;;
787;SDS011;16074;42.708;23.312;2023-06-22T06:14:11;18.47;;;16.80;;
787;SDS011;16074;42.708;23.312;2023-06-22T06:16:39;19.20;;;17.20;;
787;SDS011;16074;42.708;23.312;2023-06-22T06:19:08;19.67;;;17.87;;
787;SDS011;16074;42.708;23.312;2023-06-22T06:21:37;19.83;;;17.80;;
787;SDS011;16074;42.708;23.312;2023-06-22T06:24:05;20.90;;;18.10;;
787;SDS011;16074;42.708;23.312;2023-06-22T06:26:33;18.33;;;16.67;;
787;SDS011;16074;42.708;23.312;2023-06-22T06:29:02;19.43;;;17.63;;
787;SDS011;16074;42.708;23.312;2023-06-22T06:31:30;20.57;;;18.77;;
787;SDS011;16074;42.708;23.312;2023-06-22T06:33:58;19.73;;;18.03;;
787;SDS011;16074;42.708;23.312;2023-06-22T06:36:26;19.73;;;18.07;;
787;SDS011;16074;42.708;23.312;2023-06-22T06:38:55;20.17;;;18.13;;
787;SDS011;16074;42.708;23.312;2023-06-22T06:41:24;19.93;;;17.97;;
787;SDS011;16074;42.708;23.312;2023-06-22T06:43:52;19.70;;;17.77;;
787;SDS011;16074;42.708;23.312;2023-06-22T06:46:20;20.13;;;18.20;;
787;SDS011;16074;42.708;23.312;2023-06-22T06:48:48;19.97;;;18.27;;
787;SDS011;16074;42.708;23.312;2023-06-22T06:51:16;19.93;;;17.93;;
787;SDS011;16074;42.708;23.312;2023-06-22T06:53:44;18.50;;;16.90;;
787;SDS011;16074;42.708;23.312;2023-06-22T06:56:14;21.23;;;18.27;;
787;SDS011;16074;42.708;23.312;2023-06-22T06:58:42;20.47;;;18.77;;
787;SDS011;16074;42.708;23.312;2023-06-22T07:01:12;19.43;;;17.73;;
787;SDS011;16074;42.708;23.312;2023-06-22T07:03:40;18.87;;;17.20;;
787;SDS011;16074;42.708;23.312;2023-06-22T07:06:08;19.27;;;17.30;;
787;SDS011;16074;42.708;23.312;2023-06-22T07:08:36;19.47;;;17.67;;
787;SDS011;16074;42.708;23.312;2023-06-22T07:11:06;18.73;;;17.03;;
787;SDS011;16074;42.708;23.312;2023-06-22T07:13:35;19.60;;;17.70;;
787;SDS011;16074;42.708;23.312;2023-06-22T07:16:04;18.67;;;17.10;;
787;SDS011;16074;42.708;23.312;2023-06-22T07:18:33;18.10;;;16.67;;
787;SDS011;16074;42.708;23.312;2023-06-22T07:21:01;18.53;;;16.70;;
787;SDS011;16074;42.708;23.312;2023-06-22T07:23:30;17.90;;;16.10;;
787;SDS011;16074;42.708;23.312;2023-06-22T07:25:58;17.37;;;15.40;;
787;SDS011;16074;42.708;23.312;2023-06-22T07:28:28;18.33;;;16.60;;
787;SDS011;16074;42.708;23.312;2023-06-22T07:30:59;18.40;;;16.63;;
787;SDS011;16074;42.708;23.312;2023-06-22T07:33:27;17.30;;;15.50;;
787;SDS011;16074;42.708;23.312;2023-06-22T07:35:55;19.60;;;17.70;;
787;SDS011;16074;42.708;23.312;2023-06-22T07:38:23;17.53;;;16.03;;
787;SDS011;16074;42.708;23.312;2023-06-22T07:40:51;19.10;;;17.30;;
787;SDS011;16074;42.708;23.312;2023-06-22T07:43:19;18.23;;;16.40;;
787;SDS011;16074;42.708;23.312;2023-06-22T07:45:49;19.93;;;17.93;;
787;SDS011;16074;42.708;23.312;2023-06-22T07:48:21;18.53;;;16.90;;
787;SDS011;16074;42.708;23.312;2023-06-22T07:50:49;19.70;;;17.97;;
787;SDS011;16074;42.708;23.312;2023-06-22T07:53:17;19.83;;;17.33;;
787;SDS011;16074;42.708;23.312;2023-06-22T07:55:45;17.90;;;16.50;;
787;SDS011;16074;42.708;23.312;2023-06-22T07:58:15;22.93;;;17.70;;
787;SDS011;16074;42.708;23.312;2023-06-22T08:00:46;18.13;;;16.40;;
787;SDS011;16074;42.708;23.312;2023-06-22T08:03:15;20.97;;;18.97;;
787;SDS011;16074;42.708;23.312;2023-06-22T08:05:45;19.97;;;17.53;;
787;SDS011;16074;42.708;23.312;2023-06-22T08:08:13;18.37;;;16.77;;
787;SDS011;16074;42.708;23.312;2023-06-22T08:10:42;18.00;;;16.50;;
787;SDS011;16074;42.708;23.312;2023-06-22T08:13:10;18.30;;;16.90;;
787;SDS011;16074;42.708;23.312;2023-06-22T08:15:38;20.00;;;18.30;;
787;SDS011;16074;42.708;23.312;2023-06-22T08:18:06;19.07;;;17.37;;
787;SDS011;16074;42.708;23.312;2023-06-22T08:20:34;18.33;;;16.73;;
787;SDS011;16074;42.708;23.312;2023-06-22T08:23:03;17.03;;;15.50;;
787;SDS011;16074;42.708;23.312;2023-06-22T08:25:33;18.10;;;16.50;;
787;SDS011;16074;42.708;23.312;2023-06-22T08:28:01;18.53;;;16.67;;
787;SDS011;16074;42.708;23.312;2023-06-22T08:30:29;18.60;;;17.00;;
787;SDS011;16074;42.708;23.312;2023-06-22T08:32:57;17.97;;;16.47;;
787;SDS011;16074;42.708;23.312;2023-06-22T08:35:25;18.30;;;16.77;;
787;SDS011;16074;42.708;23.312;2023-06-22T08:37:54;19.00;;;17.23;;
787;SDS011;16074;42.708;23.312;2023-06-22T08:40:24;17.83;;;16.33;;
787;SDS011;16074;42.708;23.312;2023-06-22T08:42:53;16.17;;;14.67;;
787;SDS011;16074;42.708;23.312;2023-06-22T08:45:21;16.37;;;15.13;;
787;SDS011;16074;42.708;23.312;2023-06-22T08:47:49;18.27;;;16.53;;
787;SDS011;16074;42.708;23.312;2023-06-22T08:50:17;16.80;;;15.10;;
787;SDS011;16074;42.708;23.312;2023-06-22T08:52:45;14.73;;;13.77;;
787;SDS011;16074;42.708;23.312;2023-06-22T08:55:14;16.10;;;14.80;;
787;SDS011;16074;42.708;23.312;2023-06-22T08:57:44;15.17;;;13.97;;
787;SDS011;16074;42.708;23.312;2023-06-22T09:00:12;15.93;;;14.63;;
787;SDS011;16074;42.708;23.312;2023-06-22T09:02:44;15.43;;;14.23;;
787;SDS011;16074;42.708;23.312;2023-06-22T09:05:13;15.00;;;14.00;;
787;SDS011;16074;42.708;23.312;2023-06-22T09:07:41;15.83;;;14.53;;
787;SDS011;16074;42.708;23.312;2023-06-22T09:10:10;14.47;;;13.30;;
787;SDS011;16074;42.708;23.312;2023-06-22T09:12:38;15.57;;;14.47;;
787;SDS011;16074;42.708;23.312;2023-06-22T09:15:08;15.23;;;14.10;;
787;SDS011;16074;42.708;23.312;2023-06-22T09:17:43;13.53;;;12.60;;
787;SDS011;16074;42.708;23.312;2023-06-22T09:20:13;15.43;;;14.10;;
787;SDS011;16074;42.708;23.312;2023-06-22T09:22:42;13.77;;;12.87;;
787;SDS011;16074;42.708;23.312;2023-06-22T09:25:10;14.50;;;13.50;;
787;SDS011;16074;42.708;23.312;2023-06-22T09:27:39;13.77;;;12.60;;
787;SDS011;16074;42.708;23.312;2023-06-22T09:30:09;14.87;;;13.87;;
787;SDS011;16074;42.708;23.312;2023-06-22T09:32:37;15.00;;;13.80;;
787;SDS011;16074;42.708;23.312;2023-06-22T09:35:06;15.90;;;14.80;;
787;SDS011;16074;42.708;23.312;2023-06-22T09:37:35;15.33;;;14.30;;
787;SDS011;16074;42.708;23.312;2023-06-22T09:40:03;15.77;;;14.77;;
787;SDS011;16074;42.708;23.312;2023-06-22T09:42:35;15.00;;;13.80;;
787;SDS011;16074;42.708;23.312;2023-06-22T09:45:04;14.83;;;13.83;;
787;SDS011;16074;42.708;23.312;2023-06-22T09:47:33;15.57;;;14.40;;
787;SDS011;16074;42.708;23.312;2023-06-22T09:50:02;14.53;;;13.33;;
787;SDS011;16074;42.708;23.312;2023-06-22T09:52:30;14.17;;;13.17;;
787;SDS011;16074;42.708;23.312;2023-06-22T09:55:13;14.33;;;13.33;;
787;SDS011;16074;42.708;23.312;2023-06-22T09:57:43;14.90;;;13.90;;
787;SDS011;16074;42.708;23.312;2023-06-22T10:00:11;15.77;;;14.60;;
787;SDS011;16074;42.708;23.312;2023-06-22T10:02:42;15.00;;;13.90;;
787;SDS011;16074;42.708;23.312;2023-06-22T10:05:11;15.33;;;14.23;;
787;SDS011;16074;42.708;23.312;2023-06-22T10:07:39;15.70;;;14.17;;
787;SDS011;16074;42.708;23.312;2023-06-22T10:10:11;17.10;;;15.37;;
787;SDS011;16074;42.708;23.312;2023-06-22T10:12:41;16.20;;;15.00;;
787;SDS011;16074;42.708;23.312;2023-06-22T10:15:10;16.43;;;15.23;;
787;SDS011;16074;42.708;23.312;2023-06-22T10:17:38;15.70;;;14.23;;
787;SDS011;16074;42.708;23.312;2023-06-22T10:20:09;15.20;;;14.00;;
787;SDS011;16074;42.708;23.312;2023-06-22T10:22:39;15.60;;;14.47;;
787;SDS011;16074;42.708;23.312;2023-06-22T10:25:08;16.27;;;15.17;;
787;SDS011;16074;42.708;23.312;2023-06-22T10:27:36;15.40;;;14.20;;
787;SDS011;16074;42.708;23.312;2023-06-22T10:30:07;14.67;;;13.70;;
787;SDS011;16074;42.708;23.312;2023-06-22T10:32:35;15.17;;;14.17;;
787;SDS011;16074;42.708;23.312;2023-06-22T10:35:03;15.47;;;14.20;;
787;SDS011;16074;42.708;23.312;2023-06-22T10:37:33;14.97;;;13.57;;
787;SDS011;16074;42.708;23.312;2023-06-22T10:40:01;16.87;;;15.60;;
787;SDS011;16074;42.708;23.312;2023-06-22T10:42:30;14.37;;;13.27;;
787;SDS011;16074;42.708;23.312;2023-06-22T10:44:58;14.83;;;13.63;;
787;SDS011;16074;42.708;23.312;2023-06-22T10:47:26;13.57;;;12.70;;
787;SDS011;16074;42.708;23.312;2023-06-22T10:49:54;15.30;;;14.20;;
787;SDS011;16074;42.708;23.312;2023-06-22T10:52:22;13.43;;;12.63;;
787;SDS011;16074;42.708;23.312;2023-06-22T10:54:52;13.90;;;12.90;;
787;SDS011;16074;42.708;23.312;2023-06-22T10:57:21;15.47;;;14.43;;
787;SDS011;16074;42.708;23.312;2023-06-22T10:59:49;14.10;;;13.20;;
787;SDS011;16074;42.708;23.312;2023-06-22T11:02:17;14.80;;;13.67;;
787;SDS011;16074;42.708;23.312;2023-06-22T11:04:46;14.97;;;14.00;;
787;SDS011;16074;42.708;23.312;2023-06-22T11:07:14;13.73;;;12.70;;
787;SDS011;16074;42.708;23.312;2023-06-22T11:09:43;14.63;;;13.57;;
787;SDS011;16074;42.708;23.312;2023-06-22T11:12:12;14.97;;;13.87;;
787;SDS011;16074;42.708;23.312;2023-06-22T11:14:41;12.70;;;11.90;;
787;SDS011;16074;42.708;23.312;2023-06-22T11:17:09;13.90;;;12.90;;
787;SDS011;16074;42.708;23.312;2023-06-22T11:19:37;13.93;;;12.90;;
787;SDS011;16074;42.708;23.312;2023-06-22T11:22:05;14.30;;;13.30;;
787;SDS011;16074;42.708;23.312;2023-06-22T11:24:35;12.77;;;11.97;;
787;SDS011;16074;42.708;23.312;2023-06-22T11:27:03;13.47;;;12.57;;
787;SDS011;16074;42.708;23.312;2023-06-22T11:29:33;13.40;;;12.50;;
787;SDS011;16074;42.708;23.312;2023-06-22T11:32:04;13.53;;;12.63;;
787;SDS011;16074;42.708;23.312;2023-06-22T11:34:33;13.80;;;12.80;;
787;SDS011;16074;42.708;23.312;2023-06-22T11:37:01;12.50;;;11.60;;
787;SDS011;16074;42.708;23.312;2023-06-22T11:39:29;13.97;;;13.17;;
787;SDS011;16074;42.708;23.312;2023-06-22T11:42:08;13.67;;;12.87;;
787;SDS011;16074;42.708;23.312;2023-06-22T11:44:38;13.27;;;12.23;;
787;SDS011;16074;42.708;23.312;2023-06-22T11:47:07;15.37;;;14.37;;
787;SDS011;16074;42.708;23.312;2023-06-22T11:49:35;14.03;;;12.93;;
787;SDS011;16074;42.708;23.312;2023-06-22T11:52:03;14.13;;;13.13;;
787;SDS011;16074;42.708;23.312;2023-06-22T11:54:31;15.80;;;14.20;;
787;SDS011;16074;42.708;23.312;2023-06-22T11:57:00;13.23;;;12.33;;
787;SDS011;16074;42.708;23.312;2023-06-22T11:59:28;13.40;;;12.60;;
787;SDS011;16074;42.708;23.312;2023-06-22T12:01:58;14.43;;;13.13;;
787;SDS011;16074;42.708;23.312;2023-06-22T12:04:26;15.03;;;14.03;;
787;SDS011;16074;42.708;23.312;2023-06-22T12:06:54;13.97;;;12.97;;
787;SDS011;16074;42.708;23.312;2023-06-22T12:09:22;13.90;;;13.00;;
787;SDS011;16074;42.708;23.312;2023-06-22T12:11:50;14.97;;;13.77;;
787;SDS011;16074;42.708;23.312;2023-06-22T12:14:18;15.77;;;14.57;;
787;SDS011;16074;42.708;23.312;2023-06-22T12:16:46;15.70;;;14.10;;
787;SDS011;16074;42.708;23.312;2023-06-22T12:19:16;16.40;;;14.77;;
787;SDS011;16074;42.708;23.312;2023-06-22T12:21:44;16.77;;;15.37;;
787;SDS011;16074;42.708;23.312;2023-06-22T12:24:13;16.17;;;15.03;;
787;SDS011;16074;42.708;23.312;2023-06-22T12:26:41;15.30;;;13.80;;
787;SDS011;16074;42.708;23.312;2023-06-22T12:29:10;16.10;;;14.80;;
787;SDS011;16074;42.708;23.312;2023-06-22T12:31:38;16.00;;;14.70;;
787;SDS011;16074;42.708;23.312;2023-06-22T12:34:08;15.50;;;14.40;;
787;SDS011;16074;42.708;23.312;2023-06-22T12:36:37;14.60;;;13.20;;
787;SDS011;16074;42.708;23.312;2023-06-22T12:39:05;14.23;;;13.00;;
787;SDS011;16074;42.708;23.312;2023-06-22T12:41:33;15.30;;;13.87;;
787;SDS011;16074;42.708;23.312;2023-06-22T12:44:01;13.07;;;11.87;;
787;SDS011;16074;42.708;23.312;2023-06-22T12:46:29;12.10;;;11.00;;
787;SDS011;16074;42.708;23.312;2023-06-22T12:49:03;10.90;;;10.10;;
787;SDS011;16074;42.708;23.312;2023-06-22T12:51:31;12.30;;;11.00;;
787;SDS011;16074;42.708;23.312;2023-06-22T12:54:02;13.20;;;10.57;;
787;SDS011;16074;42.708;23.312;2023-06-22T12:56:30;10.20;;;9.30;;
787;SDS011;16074;42.708;23.312;2023-06-22T12:58:58;11.00;;;9.10;;
787;SDS011;16074;42.708;23.312;2023-06-22T13:01:28;10.40;;;9.40;;
787;SDS011;16074;42.708;23.312;2023-06-22T13:03:57;14.23;;;11.00;;
787;SDS011;16074;42.708;23.312;2023-06-22T13:06:25;11.03;;;9.47;;
787;SDS011;16074;42.708;23.312;2023-06-22T13:08:53;11.30;;;10.17;;
787;SDS011;16074;42.708;23.312;2023-06-22T13:11:26;12.23;;;9.80;;
787;SDS011;16074;42.708;23.312;2023-06-22T13:13:54;9.97;;;9.07;;
787;SDS011;16074;42.708;23.312;2023-06-22T13:16:22;11.07;;;9.97;;
787;SDS011;16074;42.708;23.312;2023-06-22T13:18:50;11.47;;;10.37;;
787;SDS011;16074;42.708;23.312;2023-06-22T13:21:18;12.27;;;10.97;;
787;SDS011;16074;42.708;23.312;2023-06-22T13:23:46;12.47;;;11.27;;
787;SDS011;16074;42.708;23.312;2023-06-22T13:26:14;11.50;;;10.53;;
787;SDS011;16074;42.708;23.312;2023-06-22T13:28:43;16.03;;;11.20;;
787;SDS011;16074;42.708;23.312;2023-06-22T13:31:11;13.13;;;12.00;;
787;SDS011;16074;42.708;23.312;2023-06-22T13:33:39;14.53;;;13.13;;
787;SDS011;16074;42.708;23.312;2023-06-22T13:36:08;16.07;;;14.57;;
787;SDS011;16074;42.708;23.312;2023-06-22T13:38:36;17.03;;;13.67;;
787;SDS011;16074;42.708;23.312;2023-06-22T13:41:05;16.13;;;14.53;;
787;SDS011;16074;42.708;23.312;2023-06-22T13:43:33;16.27;;;14.00;;
787;SDS011;16074;42.708;23.312;2023-06-22T13:46:02;16.30;;;15.00;;
787;SDS011;16074;42.708;23.312;2023-06-22T13:48:30;16.13;;;14.63;;
787;SDS011;16074;42.708;23.312;2023-06-22T13:50:59;16.00;;;14.50;;
787;SDS011;16074;42.708;23.312;2023-06-22T13:53:27;15.57;;;13.97;;
787;SDS011;16074;42.708;23.312;2023-06-22T13:55:55;13.40;;;12.30;;
787;SDS011;16074;42.708;23.312;2023-06-22T13:58:23;14.27;;;12.70;;
787;SDS011;16074;42.708;23.312;2023-06-22T14:00:51;14.77;;;13.43;;
787;SDS011;16074;42.708;23.312;2023-06-22T14:03:23;14.63;;;13.13;;
787;SDS011;16074;42.708;23.312;2023-06-22T14:05:52;14.50;;;13.20;;
787;SDS011;16074;42.708;23.312;2023-06-22T14:08:23;15.03;;;13.70;;
787;SDS011;16074;42.708;23.312;2023-06-22T14:11:11;14.00;;;11.80;;
787;SDS011;16074;42.708;23.312;2023-06-22T14:13:40;12.40;;;11.23;;
787;SDS011;16074;42.708;23.312;2023-06-22T14:16:09;14.50;;;13.20;;
787;SDS011;16074;42.708;23.312;2023-06-22T14:18:39;12.97;;;11.97;;
787;SDS011;16074;42.708;23.312;2023-06-22T14:21:07;12.60;;;11.40;;
787;SDS011;16074;42.708;23.312;2023-06-22T14:23:35;12.53;;;11.43;;
787;SDS011;16074;42.708;23.312;2023-06-22T14:26:04;14.67;;;13.17;;
787;SDS011;16074;42.708;23.312;2023-06-22T14:28:32;12.97;;;11.77;;
787;SDS011;16074;42.708;23.312;2023-06-22T14:31:00;13.73;;;12.50;;
787;SDS011;16074;42.708;23.312;2023-06-22T14:33:28;14.30;;;13.10;;
787;SDS011;16074;42.708;23.312;2023-06-22T14:35:58;14.63;;;13.03;;
787;SDS011;16074;42.708;23.312;2023-06-22T14:38:26;14.77;;;13.47;;
787;SDS011;16074;42.708;23.312;2023-06-22T14:40:54;14.90;;;13.30;;
787;SDS011;16074;42.708;23.312;2023-06-22T14:43:43;15.40;;;13.83;;
787;SDS011;16074;42.708;23.312;2023-06-22T14:46:11;15.37;;;13.83;;